sensor_id;sensor_type;location;lat;lon;timestamp;P1;durP1;ratioP1;P2;durP2;ratioP2
19747;SDS011;10032;51.386;12.516;2022-09-13T00:01:44;8.70;;;4.80;;
19747;SDS011;10032;51.386;12.516;2022-09-13T00:04:09;5.40;;;4.33;;
19747;SDS011;10032;51.386;12.516;2022-09-13T00:06:34;5.67;;;4.83;;
19747;SDS011;10032;51.386;12.516;2022-09-13T00:09:00;4.90;;;4.40;;
19747;SDS011;10032;51.386;12.516;2022-09-13T00:11:26;5.33;;;4.13;;
19747;SDS011;10032;51.386;12.516;2022-09-13T00:13:53;4.50;;;4.10;;
19747;SDS011;10032;51.386;12.516;2022-09-13T00:16:20;5.17;;;4.67;;
19747;SDS011;10032;51.386;12.516;2022-09-13T00:18:48;5.10;;;4.60;;
19747;SDS011;10032;51.386;12.516;2022-09-13T00:21:16;4.47;;;4.07;;
19747;SDS011;10032;51.386;12.516;2022-09-13T00:23:44;5.03;;;4.53;;
19747;SDS011;10032;51.386;12.516;2022-09-13T00:26:11;5.10;;;4.50;;
19747;SDS011;10032;51.386;12.516;2022-09-13T00:28:39;5.30;;;4.57;;
19747;SDS011;10032;51.386;12.516;2022-09-13T00:31:05;5.07;;;4.57;;
19747;SDS011;10032;51.386;12.516;2022-09-13T00:33:32;6.10;;;4.63;;
19747;SDS011;10032;51.386;12.516;2022-09-13T00:36:01;5.27;;;4.77;;
19747;SDS011;10032;51.386;12.516;2022-09-13T00:38:28;5.33;;;4.83;;
19747;SDS011;10032;51.386;12.516;2022-09-13T00:40:53;5.30;;;4.80;;
19747;SDS011;10032;51.386;12.516;2022-09-13T00:43:20;5.67;;;5.00;;
19747;SDS011;10032;51.386;12.516;2022-09-13T00:46:04;5.77;;;5.10;;
19747;SDS011;10032;51.386;12.516;2022-09-13T00:48:29;6.27;;;4.97;;
19747;SDS011;10032;51.386;12.516;2022-09-13T00:50:57;5.67;;;5.17;;
19747;SDS011;10032;51.386;12.516;2022-09-13T00:53:24;5.87;;;5.27;;
19747;SDS011;10032;51.386;12.516;2022-09-13T00:55:57;7.27;;;5.40;;
19747;SDS011;10032;51.386;12.516;2022-09-13T00:58:42;7.57;;;5.10;;
19747;SDS011;10032;51.386;12.516;2022-09-13T01:01:24;6.47;;;5.43;;
19747;SDS011;10032;51.386;12.516;2022-09-13T01:03:55;5.50;;;4.97;;
19747;SDS011;10032;51.386;12.516;2022-09-13T01:06:24;6.37;;;5.47;;
19747;SDS011;10032;51.386;12.516;2022-09-13T01:08:53;7.73;;;6.03;;
19747;SDS011;10032;51.386;12.516;2022-09-13T01:11:25;6.07;;;5.33;;
19747;SDS011;10032;51.386;12.516;2022-09-13T01:13:56;7.13;;;5.70;;
19747;SDS011;10032;51.386;12.516;2022-09-13T01:16:22;7.07;;;5.93;;
19747;SDS011;10032;51.386;12.516;2022-09-13T01:18:47;7.37;;;6.43;;
19747;SDS011;10032;51.386;12.516;2022-09-13T01:27:30;8.70;;;6.13;;
19747;SDS011;10032;51.386;12.516;2022-09-13T01:35:50;6.27;;;5.67;;
19747;SDS011;10032;51.386;12.516;2022-09-13T01:38:25;7.00;;;5.90;;
19747;SDS011;10032;51.386;12.516;2022-09-13T01:44:23;7.93;;;6.10;;
19747;SDS011;10032;51.386;12.516;2022-09-13T01:52:54;10.73;;;6.20;;
19747;SDS011;10032;51.386;12.516;2022-09-13T01:55:29;11.10;;;6.53;;
19747;SDS011;10032;51.386;12.516;2022-09-13T02:00:53;9.23;;;6.73;;
19747;SDS011;10032;51.386;12.516;2022-09-13T02:07:11;7.73;;;6.30;;
19747;SDS011;10032;51.386;12.516;2022-09-13T02:09:26;6.77;;;5.97;;
19747;SDS011;10032;51.386;12.516;2022-09-13T02:12:02;7.30;;;6.30;;
19747;SDS011;10032;51.386;12.516;2022-09-13T02:14:38;7.73;;;6.20;;
19747;SDS011;10032;51.386;12.516;2022-09-13T02:17:06;7.57;;;6.13;;
19747;SDS011;10032;51.386;12.516;2022-09-13T02:19:38;7.47;;;6.67;;
19747;SDS011;10032;51.386;12.516;2022-09-13T02:22:07;7.40;;;6.23;;
19747;SDS011;10032;51.386;12.516;2022-09-13T02:24:38;7.27;;;6.57;;
19747;SDS011;10032;51.386;12.516;2022-09-13T02:27:10;8.03;;;6.60;;
19747;SDS011;10032;51.386;12.516;2022-09-13T02:29:39;7.03;;;6.33;;
19747;SDS011;10032;51.386;12.516;2022-09-13T02:32:09;7.07;;;5.63;;
19747;SDS011;10032;51.386;12.516;2022-09-13T02:34:40;12.50;;;5.97;;
19747;SDS011;10032;51.386;12.516;2022-09-13T02:37:10;7.83;;;6.67;;
19747;SDS011;10032;51.386;12.516;2022-09-13T02:39:39;7.30;;;6.13;;
19747;SDS011;10032;51.386;12.516;2022-09-13T02:42:18;8.00;;;6.37;;
19747;SDS011;10032;51.386;12.516;2022-09-13T02:44:46;5.93;;;5.23;;
19747;SDS011;10032;51.386;12.516;2022-09-13T02:55:29;7.13;;;6.10;;
19747;SDS011;10032;51.386;12.516;2022-09-13T02:58:18;8.70;;;5.90;;
19747;SDS011;10032;51.386;12.516;2022-09-13T03:00:49;8.30;;;5.90;;
19747;SDS011;10032;51.386;12.516;2022-09-13T03:03:15;6.30;;;5.40;;
19747;SDS011;10032;51.386;12.516;2022-09-13T03:05:41;6.13;;;5.33;;
19747;SDS011;10032;51.386;12.516;2022-09-13T03:08:08;6.97;;;5.77;;
19747;SDS011;10032;51.386;12.516;2022-09-13T03:10:43;6.20;;;5.57;;
19747;SDS011;10032;51.386;12.516;2022-09-13T03:24:21;7.33;;;5.37;;
19747;SDS011;10032;51.386;12.516;2022-09-13T03:27:01;7.13;;;5.57;;
19747;SDS011;10032;51.386;12.516;2022-09-13T03:29:38;7.03;;;5.67;;
19747;SDS011;10032;51.386;12.516;2022-09-13T03:34:52;7.60;;;5.43;;
19747;SDS011;10032;51.386;12.516;2022-09-13T03:40:14;6.07;;;5.20;;
19747;SDS011;10032;51.386;12.516;2022-09-13T03:42:49;6.57;;;5.37;;
19747;SDS011;10032;51.386;12.516;2022-09-13T03:45:20;7.07;;;5.60;;
19747;SDS011;10032;51.386;12.516;2022-09-13T03:47:50;6.43;;;5.70;;
19747;SDS011;10032;51.386;12.516;2022-09-13T03:50:19;7.50;;;6.03;;
19747;SDS011;10032;51.386;12.516;2022-09-13T03:52:47;6.90;;;5.17;;
19747;SDS011;10032;51.386;12.516;2022-09-13T03:55:19;6.43;;;5.50;;
19747;SDS011;10032;51.386;12.516;2022-09-13T03:57:45;6.97;;;5.37;;
19747;SDS011;10032;51.386;12.516;2022-09-13T04:00:12;6.87;;;5.37;;
19747;SDS011;10032;51.386;12.516;2022-09-13T04:02:39;6.43;;;5.70;;
19747;SDS011;10032;51.386;12.516;2022-09-13T04:05:04;7.40;;;5.90;;
19747;SDS011;10032;51.386;12.516;2022-09-13T04:07:30;6.83;;;5.17;;
19747;SDS011;10032;51.386;12.516;2022-09-13T04:09:56;7.60;;;5.60;;
19747;SDS011;10032;51.386;12.516;2022-09-13T04:12:21;6.93;;;5.17;;
19747;SDS011;10032;51.386;12.516;2022-09-13T04:14:47;8.87;;;5.00;;
19747;SDS011;10032;51.386;12.516;2022-09-13T04:17:13;6.83;;;5.20;;
19747;SDS011;10032;51.386;12.516;2022-09-13T04:19:38;7.87;;;6.00;;
19747;SDS011;10032;51.386;12.516;2022-09-13T04:22:04;7.37;;;6.00;;
19747;SDS011;10032;51.386;12.516;2022-09-13T04:24:30;7.20;;;5.93;;
19747;SDS011;10032;51.386;12.516;2022-09-13T04:26:56;6.83;;;5.23;;
19747;SDS011;10032;51.386;12.516;2022-09-13T04:29:22;7.13;;;5.23;;
19747;SDS011;10032;51.386;12.516;2022-09-13T04:31:50;6.40;;;5.47;;
19747;SDS011;10032;51.386;12.516;2022-09-13T04:34:16;6.30;;;4.70;;
19747;SDS011;10032;51.386;12.516;2022-09-13T04:36:47;8.17;;;6.07;;
19747;SDS011;10032;51.386;12.516;2022-09-13T04:39:13;7.27;;;5.47;;
19747;SDS011;10032;51.386;12.516;2022-09-13T04:41:42;9.40;;;5.70;;
19747;SDS011;10032;51.386;12.516;2022-09-13T04:44:13;6.67;;;5.73;;
19747;SDS011;10032;51.386;12.516;2022-09-13T04:46:39;6.20;;;5.37;;
19747;SDS011;10032;51.386;12.516;2022-09-13T04:49:05;7.00;;;5.97;;
19747;SDS011;10032;51.386;12.516;2022-09-13T04:51:31;7.17;;;5.30;;
19747;SDS011;10032;51.386;12.516;2022-09-13T04:53:56;7.97;;;5.43;;
19747;SDS011;10032;51.386;12.516;2022-09-13T04:56:22;7.80;;;5.77;;
19747;SDS011;10032;51.386;12.516;2022-09-13T04:58:51;9.77;;;5.93;;
19747;SDS011;10032;51.386;12.516;2022-09-13T05:01:18;8.50;;;5.67;;
19747;SDS011;10032;51.386;12.516;2022-09-13T05:03:44;8.40;;;6.10;;
19747;SDS011;10032;51.386;12.516;2022-09-13T05:06:13;7.20;;;5.40;;
19747;SDS011;10032;51.386;12.516;2022-09-13T05:08:42;7.33;;;5.63;;
19747;SDS011;10032;51.386;12.516;2022-09-13T05:11:08;6.63;;;5.13;;
19747;SDS011;10032;51.386;12.516;2022-09-13T05:13:34;9.63;;;5.13;;
19747;SDS011;10032;51.386;12.516;2022-09-13T05:16:02;7.03;;;5.23;;
19747;SDS011;10032;51.386;12.516;2022-09-13T05:18:30;6.70;;;5.40;;
19747;SDS011;10032;51.386;12.516;2022-09-13T05:20:57;5.97;;;5.07;;
19747;SDS011;10032;51.386;12.516;2022-09-13T05:23:24;8.03;;;5.57;;
19747;SDS011;10032;51.386;12.516;2022-09-13T05:25:51;8.17;;;5.43;;
19747;SDS011;10032;51.386;12.516;2022-09-13T05:28:21;7.77;;;5.70;;
19747;SDS011;10032;51.386;12.516;2022-09-13T05:30:56;7.93;;;6.00;;
19747;SDS011;10032;51.386;12.516;2022-09-13T05:33:22;8.27;;;5.60;;
19747;SDS011;10032;51.386;12.516;2022-09-13T05:35:49;8.73;;;5.57;;
19747;SDS011;10032;51.386;12.516;2022-09-13T05:38:15;6.50;;;5.10;;
19747;SDS011;10032;51.386;12.516;2022-09-13T05:40:41;6.53;;;5.23;;
19747;SDS011;10032;51.386;12.516;2022-09-13T05:43:06;8.53;;;5.70;;
19747;SDS011;10032;51.386;12.516;2022-09-13T05:45:32;5.87;;;5.27;;
19747;SDS011;10032;51.386;12.516;2022-09-13T05:47:57;6.93;;;5.67;;
19747;SDS011;10032;51.386;12.516;2022-09-13T05:50:22;10.40;;;5.77;;
19747;SDS011;10032;51.386;12.516;2022-09-13T05:52:54;7.80;;;5.47;;
19747;SDS011;10032;51.386;12.516;2022-09-13T05:55:21;7.87;;;5.67;;
19747;SDS011;10032;51.386;12.516;2022-09-13T05:57:47;7.63;;;5.90;;
19747;SDS011;10032;51.386;12.516;2022-09-13T06:00:13;7.40;;;5.50;;
19747;SDS011;10032;51.386;12.516;2022-09-13T06:02:39;8.53;;;4.90;;
19747;SDS011;10032;51.386;12.516;2022-09-13T06:05:05;6.97;;;5.23;;
19747;SDS011;10032;51.386;12.516;2022-09-13T06:07:31;6.57;;;5.30;;
19747;SDS011;10032;51.386;12.516;2022-09-13T06:09:57;10.80;;;5.67;;
19747;SDS011;10032;51.386;12.516;2022-09-13T06:12:22;7.60;;;5.37;;
19747;SDS011;10032;51.386;12.516;2022-09-13T06:14:47;6.97;;;5.33;;
19747;SDS011;10032;51.386;12.516;2022-09-13T06:17:13;6.35;;;5.53;;
19747;SDS011;10032;51.386;12.516;2022-09-13T06:19:39;7.85;;;5.88;;
19747;SDS011;10032;51.386;12.516;2022-09-13T06:22:04;6.73;;;5.27;;
19747;SDS011;10032;51.386;12.516;2022-09-13T06:24:30;6.97;;;5.30;;
19747;SDS011;10032;51.386;12.516;2022-09-13T06:26:55;6.97;;;5.63;;
19747;SDS011;10032;51.386;12.516;2022-09-13T06:29:20;7.18;;;5.60;;
19747;SDS011;10032;51.386;12.516;2022-09-13T06:31:46;6.57;;;5.30;;
19747;SDS011;10032;51.386;12.516;2022-09-13T06:34:11;7.68;;;5.55;;
19747;SDS011;10032;51.386;12.516;2022-09-13T06:36:39;7.70;;;5.65;;
19747;SDS011;10032;51.386;12.516;2022-09-13T06:39:04;9.70;;;6.03;;
19747;SDS011;10032;51.386;12.516;2022-09-13T06:41:30;7.35;;;5.90;;
19747;SDS011;10032;51.386;12.516;2022-09-13T06:43:57;11.45;;;5.70;;
19747;SDS011;10032;51.386;12.516;2022-09-13T06:46:24;8.00;;;5.57;;
19747;SDS011;10032;51.386;12.516;2022-09-13T06:48:51;6.35;;;5.57;;
19747;SDS011;10032;51.386;12.516;2022-09-13T06:51:18;10.07;;;6.43;;
19747;SDS011;10032;51.386;12.516;2022-09-13T06:53:46;7.95;;;5.75;;
19747;SDS011;10032;51.386;12.516;2022-09-13T06:59:08;7.72;;;5.25;;
19747;SDS011;10032;51.386;12.516;2022-09-13T07:01:35;6.47;;;5.63;;
19747;SDS011;10032;51.386;12.516;2022-09-13T07:04:03;9.13;;;6.50;;
19747;SDS011;10032;51.386;12.516;2022-09-13T07:06:31;7.30;;;5.22;;
19747;SDS011;10032;51.386;12.516;2022-09-13T07:08:58;8.13;;;5.65;;
19747;SDS011;10032;51.386;12.516;2022-09-13T07:11:30;8.18;;;6.57;;
19747;SDS011;10032;51.386;12.516;2022-09-13T07:13:58;6.60;;;5.80;;
19747;SDS011;10032;51.386;12.516;2022-09-13T07:16:27;7.75;;;5.32;;
19747;SDS011;10032;51.386;12.516;2022-09-13T07:18:57;8.43;;;6.18;;
19747;SDS011;10032;51.386;12.516;2022-09-13T07:21:29;7.90;;;6.35;;
19747;SDS011;10032;51.386;12.516;2022-09-13T07:23:56;7.50;;;5.85;;
19747;SDS011;10032;51.386;12.516;2022-09-13T07:26:22;6.38;;;5.78;;
19747;SDS011;10032;51.386;12.516;2022-09-13T07:28:49;8.63;;;5.93;;
19747;SDS011;10032;51.386;12.516;2022-09-13T07:31:18;9.45;;;6.10;;
19747;SDS011;10032;51.386;12.516;2022-09-13T07:33:46;10.63;;;6.97;;
19747;SDS011;10032;51.386;12.516;2022-09-13T07:36:16;7.72;;;6.00;;
19747;SDS011;10032;51.386;12.516;2022-09-13T07:38:42;7.80;;;5.82;;
19747;SDS011;10032;51.386;12.516;2022-09-13T07:41:11;7.40;;;6.22;;
19747;SDS011;10032;51.386;12.516;2022-09-13T07:43:39;7.90;;;5.85;;
19747;SDS011;10032;51.386;12.516;2022-09-13T07:46:08;7.90;;;6.50;;
19747;SDS011;10032;51.386;12.516;2022-09-13T07:48:37;8.52;;;6.15;;
19747;SDS011;10032;51.386;12.516;2022-09-13T07:51:08;7.80;;;6.03;;
19747;SDS011;10032;51.386;12.516;2022-09-13T07:53:33;5.85;;;5.25;;
19747;SDS011;10032;51.386;12.516;2022-09-13T07:56:01;8.82;;;5.90;;
19747;SDS011;10032;51.386;12.516;2022-09-13T07:58:27;8.55;;;6.47;;
19747;SDS011;10032;51.386;12.516;2022-09-13T08:00:53;7.20;;;6.00;;
19747;SDS011;10032;51.386;12.516;2022-09-13T08:03:18;9.70;;;5.95;;
19747;SDS011;10032;51.386;12.516;2022-09-13T08:05:43;9.50;;;6.75;;
19747;SDS011;10032;51.386;12.516;2022-09-13T08:08:09;9.35;;;6.38;;
19747;SDS011;10032;51.386;12.516;2022-09-13T08:10:34;10.60;;;6.10;;
19747;SDS011;10032;51.386;12.516;2022-09-13T08:12:59;8.88;;;6.68;;
19747;SDS011;10032;51.386;12.516;2022-09-13T08:15:25;6.82;;;5.65;;
19747;SDS011;10032;51.386;12.516;2022-09-13T08:17:51;7.53;;;5.63;;
19747;SDS011;10032;51.386;12.516;2022-09-13T08:20:20;8.57;;;5.95;;
19747;SDS011;10032;51.386;12.516;2022-09-13T08:22:46;8.27;;;6.07;;
19747;SDS011;10032;51.386;12.516;2022-09-13T08:25:12;9.38;;;7.47;;
19747;SDS011;10032;51.386;12.516;2022-09-13T08:27:37;8.27;;;6.07;;
19747;SDS011;10032;51.386;12.516;2022-09-13T08:30:03;6.28;;;5.57;;
19747;SDS011;10032;51.386;12.516;2022-09-13T08:32:29;6.65;;;5.30;;
19747;SDS011;10032;51.386;12.516;2022-09-13T08:34:54;8.50;;;6.30;;
19747;SDS011;10032;51.386;12.516;2022-09-13T08:37:20;9.30;;;6.57;;
19747;SDS011;10032;51.386;12.516;2022-09-13T08:39:45;7.57;;;4.93;;
19747;SDS011;10032;51.386;12.516;2022-09-13T08:45:03;6.22;;;5.22;;
19747;SDS011;10032;51.386;12.516;2022-09-13T08:47:31;7.22;;;5.65;;
19747;SDS011;10032;51.386;12.516;2022-09-13T08:50:20;7.43;;;5.22;;
19747;SDS011;10032;51.386;12.516;2022-09-13T08:55:38;7.88;;;5.60;;
19747;SDS011;10032;51.386;12.516;2022-09-13T08:58:22;9.95;;;6.22;;
19747;SDS011;10032;51.386;12.516;2022-09-13T09:07:00;7.40;;;5.30;;
19747;SDS011;10032;51.386;12.516;2022-09-13T09:09:31;8.10;;;5.13;;
19747;SDS011;10032;51.386;12.516;2022-09-13T09:12:12;5.97;;;4.70;;
19747;SDS011;10032;51.386;12.516;2022-09-13T09:14:41;5.15;;;4.63;;
19747;SDS011;10032;51.386;12.516;2022-09-13T09:17:20;8.70;;;5.10;;
19747;SDS011;10032;51.386;12.516;2022-09-13T09:19:55;5.18;;;4.30;;
19747;SDS011;10032;51.386;12.516;2022-09-13T09:22:30;5.15;;;4.38;;
19747;SDS011;10032;51.386;12.516;2022-09-13T09:24:58;7.72;;;4.97;;
19747;SDS011;10032;51.386;12.516;2022-09-13T09:27:24;5.47;;;4.53;;
19747;SDS011;10032;51.386;12.516;2022-09-13T09:29:51;5.43;;;4.53;;
19747;SDS011;10032;51.386;12.516;2022-09-13T09:34:51;5.03;;;4.28;;
19747;SDS011;10032;51.386;12.516;2022-09-13T09:37:36;8.48;;;4.55;;
19747;SDS011;10032;51.386;12.516;2022-09-13T09:40:04;5.32;;;4.20;;
19747;SDS011;10032;51.386;12.516;2022-09-13T09:42:37;5.93;;;4.72;;
19747;SDS011;10032;51.386;12.516;2022-09-13T09:47:54;4.72;;;4.25;;
19747;SDS011;10032;51.386;12.516;2022-09-13T09:50:24;4.78;;;4.10;;
19747;SDS011;10032;51.386;12.516;2022-09-13T10:00:23;5.28;;;4.10;;
19747;SDS011;10032;51.386;12.516;2022-09-13T10:02:55;5.45;;;4.32;;
19747;SDS011;10032;51.386;12.516;2022-09-13T10:05:23;4.20;;;3.80;;
19747;SDS011;10032;51.386;12.516;2022-09-13T10:08:01;4.25;;;3.85;;
19747;SDS011;10032;51.386;12.516;2022-09-13T10:10:40;4.25;;;3.85;;
19747;SDS011;10032;51.386;12.516;2022-09-13T10:13:17;4.95;;;3.75;;
19747;SDS011;10032;51.386;12.516;2022-09-13T10:15:57;4.97;;;3.53;;
19747;SDS011;10032;51.386;12.516;2022-09-13T10:18:25;4.22;;;3.67;;
19747;SDS011;10032;51.386;12.516;2022-09-13T10:23:42;4.50;;;3.75;;
19747;SDS011;10032;51.386;12.516;2022-09-13T10:26:16;3.60;;;3.30;;
19747;SDS011;10032;51.386;12.516;2022-09-13T10:31:25;7.80;;;3.92;;
19747;SDS011;10032;51.386;12.516;2022-09-13T10:33:55;3.83;;;3.50;;
19747;SDS011;10032;51.386;12.516;2022-09-13T10:36:25;4.03;;;3.22;;
19747;SDS011;10032;51.386;12.516;2022-09-13T10:39:02;3.42;;;3.13;;
19747;SDS011;10032;51.386;12.516;2022-09-13T10:41:31;3.95;;;3.15;;
19747;SDS011;10032;51.386;12.516;2022-09-13T10:43:58;3.63;;;2.60;;
19747;SDS011;10032;51.386;12.516;2022-09-13T10:46:26;3.60;;;3.30;;
19747;SDS011;10032;51.386;12.516;2022-09-13T10:48:54;4.25;;;2.95;;
19747;SDS011;10032;51.386;12.516;2022-09-13T10:53:45;4.63;;;3.20;;
19747;SDS011;10032;51.386;12.516;2022-09-13T10:56:19;3.75;;;2.85;;
19747;SDS011;10032;51.386;12.516;2022-09-13T10:58:46;3.25;;;2.95;;
19747;SDS011;10032;51.386;12.516;2022-09-13T11:01:14;2.63;;;2.42;;
19747;SDS011;10032;51.386;12.516;2022-09-13T11:04:02;3.25;;;2.95;;
19747;SDS011;10032;51.386;12.516;2022-09-13T11:06:44;3.10;;;2.80;;
19747;SDS011;10032;51.386;12.516;2022-09-13T11:09:18;3.85;;;3.47;;
19747;SDS011;10032;51.386;12.516;2022-09-13T11:14:59;3.67;;;2.80;;
19747;SDS011;10032;51.386;12.516;2022-09-13T11:26:11;3.03;;;2.72;;
19747;SDS011;10032;51.386;12.516;2022-09-13T11:28:56;3.00;;;2.70;;
19747;SDS011;10032;51.386;12.516;2022-09-13T11:31:41;3.85;;;2.47;;
19747;SDS011;10032;51.386;12.516;2022-09-13T11:46:07;2.88;;;2.65;;
19747;SDS011;10032;51.386;12.516;2022-09-13T11:48:48;3.20;;;2.90;;
19747;SDS011;10032;51.386;12.516;2022-09-13T11:51:45;3.33;;;3.03;;
19747;SDS011;10032;51.386;12.516;2022-09-13T11:54:26;3.67;;;3.00;;
19747;SDS011;10032;51.386;12.516;2022-09-13T11:57:20;2.80;;;2.60;;
19747;SDS011;10032;51.386;12.516;2022-09-13T11:59:52;4.05;;;2.90;;
19747;SDS011;10032;51.386;12.516;2022-09-13T12:02:27;3.50;;;2.72;;
19747;SDS011;10032;51.386;12.516;2022-09-13T12:05:04;4.00;;;2.85;;
19747;SDS011;10032;51.386;12.516;2022-09-13T12:07:45;3.40;;;3.10;;
19747;SDS011;10032;51.386;12.516;2022-09-13T12:10:23;3.08;;;2.80;;
19747;SDS011;10032;51.386;12.516;2022-09-13T12:12:53;3.10;;;2.67;;
19747;SDS011;10032;51.386;12.516;2022-09-13T12:18:23;3.22;;;2.90;;
19747;SDS011;10032;51.386;12.516;2022-09-13T12:20:57;3.58;;;2.85;;
19747;SDS011;10032;51.386;12.516;2022-09-13T12:23:32;3.05;;;2.85;;
19747;SDS011;10032;51.386;12.516;2022-09-13T12:26:04;2.78;;;2.53;;
19747;SDS011;10032;51.386;12.516;2022-09-13T12:31:14;3.13;;;2.83;;
19747;SDS011;10032;51.386;12.516;2022-09-13T12:33:43;3.05;;;2.75;;
19747;SDS011;10032;51.386;12.516;2022-09-13T12:50:38;3.72;;;3.20;;
19747;SDS011;10032;51.386;12.516;2022-09-13T13:01:09;3.10;;;2.80;;
19747;SDS011;10032;51.386;12.516;2022-09-13T13:03:44;2.90;;;2.42;;
19747;SDS011;10032;51.386;12.516;2022-09-13T13:06:24;3.25;;;2.30;;
19747;SDS011;10032;51.386;12.516;2022-09-13T13:08:57;3.65;;;2.63;;
19747;SDS011;10032;51.386;12.516;2022-09-13T13:11:26;4.85;;;2.63;;
19747;SDS011;10032;51.386;12.516;2022-09-13T13:13:59;3.38;;;2.47;;
19747;SDS011;10032;51.386;12.516;2022-09-13T13:16:34;2.80;;;2.50;;
19747;SDS011;10032;51.386;12.516;2022-09-13T13:19:25;4.32;;;2.50;;
19747;SDS011;10032;51.386;12.516;2022-09-13T13:21:54;3.33;;;2.58;;
19747;SDS011;10032;51.386;12.516;2022-09-13T13:26:51;3.00;;;2.67;;
19747;SDS011;10032;51.386;12.516;2022-09-13T13:36:46;2.80;;;2.60;;
19747;SDS011;10032;51.386;12.516;2022-09-13T13:46:48;3.00;;;2.47;;
19747;SDS011;10032;51.386;12.516;2022-09-13T14:00:13;2.72;;;2.50;;
19747;SDS011;10032;51.386;12.516;2022-09-13T14:02:50;3.28;;;2.28;;
19747;SDS011;10032;51.386;12.516;2022-09-13T14:11:33;2.47;;;2.13;;
19747;SDS011;10032;51.386;12.516;2022-09-13T14:22:13;3.65;;;2.55;;
19747;SDS011;10032;51.386;12.516;2022-09-13T14:24:47;3.40;;;2.00;;
19747;SDS011;10032;51.386;12.516;2022-09-13T14:27:19;3.35;;;2.20;;
19747;SDS011;10032;51.386;12.516;2022-09-13T14:29:58;2.97;;;2.60;;
19747;SDS011;10032;51.386;12.516;2022-09-13T14:32:29;3.33;;;2.50;;
19747;SDS011;10032;51.386;12.516;2022-09-13T14:35:06;3.65;;;2.40;;
19747;SDS011;10032;51.386;12.516;2022-09-13T14:37:49;4.38;;;2.00;;
19747;SDS011;10032;51.386;12.516;2022-09-13T14:40:23;2.42;;;2.22;;
19747;SDS011;10032;51.386;12.516;2022-09-13T14:42:53;2.80;;;2.30;;
19747;SDS011;10032;51.386;12.516;2022-09-13T14:47:50;2.30;;;2.10;;
19747;SDS011;10032;51.386;12.516;2022-09-13T14:50:18;2.60;;;2.20;;
19747;SDS011;10032;51.386;12.516;2022-09-13T14:52:56;2.58;;;2.30;;
19747;SDS011;10032;51.386;12.516;2022-09-13T14:55:26;2.58;;;2.35;;
19747;SDS011;10032;51.386;12.516;2022-09-13T14:57:59;2.88;;;1.88;;
19747;SDS011;10032;51.386;12.516;2022-09-13T15:00:28;2.20;;;2.00;;
19747;SDS011;10032;51.386;12.516;2022-09-13T15:02:58;3.03;;;2.45;;
19747;SDS011;10032;51.386;12.516;2022-09-13T15:05:31;2.08;;;1.90;;
19747;SDS011;10032;51.386;12.516;2022-09-13T15:07:57;3.67;;;2.00;;
19747;SDS011;10032;51.386;12.516;2022-09-13T15:10:24;2.38;;;2.15;;
19747;SDS011;10032;51.386;12.516;2022-09-13T15:15:27;2.40;;;2.20;;
19747;SDS011;10032;51.386;12.516;2022-09-13T15:20:24;2.08;;;1.88;;
19747;SDS011;10032;51.386;12.516;2022-09-13T15:22:52;2.42;;;1.90;;
19747;SDS011;10032;51.386;12.516;2022-09-13T15:25:27;2.65;;;2.15;;
19747;SDS011;10032;51.386;12.516;2022-09-13T15:27:56;6.15;;;2.20;;
19747;SDS011;10032;51.386;12.516;2022-09-13T15:33:12;2.30;;;2.10;;
19747;SDS011;10032;51.386;12.516;2022-09-13T15:35:45;5.05;;;2.45;;
19747;SDS011;10032;51.386;12.516;2022-09-13T15:38:30;4.75;;;2.67;;
19747;SDS011;10032;51.386;12.516;2022-09-13T15:41:11;3.90;;;3.50;;
19747;SDS011;10032;51.386;12.516;2022-09-13T15:43:38;4.43;;;3.83;;
19747;SDS011;10032;51.386;12.516;2022-09-13T15:46:04;4.80;;;3.35;;
19747;SDS011;10032;51.386;12.516;2022-09-13T15:48:31;5.60;;;3.78;;
19747;SDS011;10032;51.386;12.516;2022-09-13T15:53:37;6.18;;;3.45;;
19747;SDS011;10032;51.386;12.516;2022-09-13T15:56:04;4.13;;;3.72;;
19747;SDS011;10032;51.386;12.516;2022-09-13T15:58:30;3.67;;;3.03;;
19747;SDS011;10032;51.386;12.516;2022-09-13T16:00:57;5.20;;;3.28;;
19747;SDS011;10032;51.386;12.516;2022-09-13T16:03:22;4.15;;;3.10;;
19747;SDS011;10032;51.386;12.516;2022-09-13T16:05:48;4.18;;;3.60;;
19747;SDS011;10032;51.386;12.516;2022-09-13T16:08:13;3.83;;;3.22;;
19747;SDS011;10032;51.386;12.516;2022-09-13T16:10:38;4.50;;;3.42;;
19747;SDS011;10032;51.386;12.516;2022-09-13T16:13:04;4.20;;;3.80;;
19747;SDS011;10032;51.386;12.516;2022-09-13T16:15:29;4.20;;;3.58;;
19747;SDS011;10032;51.386;12.516;2022-09-13T16:17:55;6.32;;;3.70;;
19747;SDS011;10032;51.386;12.516;2022-09-13T16:20:20;3.97;;;3.53;;
19747;SDS011;10032;51.386;12.516;2022-09-13T16:22:46;5.57;;;4.00;;
19747;SDS011;10032;51.386;12.516;2022-09-13T16:25:12;4.00;;;3.60;;
19747;SDS011;10032;51.386;12.516;2022-09-13T16:27:39;3.75;;;2.97;;
19747;SDS011;10032;51.386;12.516;2022-09-13T16:30:10;4.10;;;3.70;;
19747;SDS011;10032;51.386;12.516;2022-09-13T16:32:37;3.63;;;3.33;;
19747;SDS011;10032;51.386;12.516;2022-09-13T16:35:03;4.18;;;3.30;;
19747;SDS011;10032;51.386;12.516;2022-09-13T16:37:28;3.78;;;3.40;;
19747;SDS011;10032;51.386;12.516;2022-09-13T16:39:55;4.03;;;3.13;;
19747;SDS011;10032;51.386;12.516;2022-09-13T16:42:21;2.90;;;2.70;;
19747;SDS011;10032;51.386;12.516;2022-09-13T16:44:46;3.42;;;3.13;;
19747;SDS011;10032;51.386;12.516;2022-09-13T16:47:12;4.25;;;3.15;;
19747;SDS011;10032;51.386;12.516;2022-09-13T16:49:37;6.53;;;3.33;;
19747;SDS011;10032;51.386;12.516;2022-09-13T16:52:04;3.50;;;3.20;;
19747;SDS011;10032;51.386;12.516;2022-09-13T16:54:29;8.82;;;3.47;;
19747;SDS011;10032;51.386;12.516;2022-09-13T16:56:55;5.40;;;3.10;;
19747;SDS011;10032;51.386;12.516;2022-09-13T16:59:22;3.28;;;2.97;;
19747;SDS011;10032;51.386;12.516;2022-09-13T17:01:48;5.35;;;3.70;;
19747;SDS011;10032;51.386;12.516;2022-09-13T17:04:13;3.22;;;2.92;;
19747;SDS011;10032;51.386;12.516;2022-09-13T17:06:39;3.38;;;3.08;;
19747;SDS011;10032;51.386;12.516;2022-09-13T17:09:06;4.00;;;3.60;;
19747;SDS011;10032;51.386;12.516;2022-09-13T17:11:34;3.53;;;3.03;;
19747;SDS011;10032;51.386;12.516;2022-09-13T17:14:02;4.68;;;3.35;;
19747;SDS011;10032;51.386;12.516;2022-09-13T17:16:33;4.10;;;3.13;;
19747;SDS011;10032;51.386;12.516;2022-09-13T17:19:05;4.22;;;3.05;;
19747;SDS011;10032;51.386;12.516;2022-09-13T17:21:33;6.47;;;3.30;;
19747;SDS011;10032;51.386;12.516;2022-09-13T17:23:59;4.57;;;2.83;;
19747;SDS011;10032;51.386;12.516;2022-09-13T17:26:25;3.72;;;3.05;;
19747;SDS011;10032;51.386;12.516;2022-09-13T17:28:50;5.32;;;3.30;;
19747;SDS011;10032;51.386;12.516;2022-09-13T17:31:16;5.50;;;3.83;;
19747;SDS011;10032;51.386;12.516;2022-09-13T17:33:42;6.82;;;3.50;;
19747;SDS011;10032;51.386;12.516;2022-09-13T17:36:09;9.43;;;4.10;;
19747;SDS011;10032;51.386;12.516;2022-09-13T17:38:37;3.10;;;2.80;;
19747;SDS011;10032;51.386;12.516;2022-09-13T17:41:05;3.95;;;3.50;;
19747;SDS011;10032;51.386;12.516;2022-09-13T17:43:33;5.50;;;3.60;;
19747;SDS011;10032;51.386;12.516;2022-09-13T17:46:08;5.82;;;3.92;;
19747;SDS011;10032;51.386;12.516;2022-09-13T17:48:36;7.07;;;3.40;;
19747;SDS011;10032;51.386;12.516;2022-09-13T17:51:05;5.20;;;3.58;;
19747;SDS011;10032;51.386;12.516;2022-09-13T17:53:40;3.53;;;3.22;;
19747;SDS011;10032;51.386;12.516;2022-09-13T17:56:08;4.45;;;3.15;;
19747;SDS011;10032;51.386;12.516;2022-09-13T17:58:34;4.85;;;3.70;;
19747;SDS011;10032;51.386;12.516;2022-09-13T18:01:01;3.78;;;3.42;;
19747;SDS011;10032;51.386;12.516;2022-09-13T18:03:26;4.25;;;3.08;;